Schiller Park, Illinois
Current Conditions -  °F | °C
As of 5:51 AM on Friday 28 Nov 2014 (Local Time) from KORD Reporting Station
Overcast Overcast  
Wind Chill: 12°   Ceiling: 6000
Heat Index: 20°   Visibility: 10mi
Dew Point: 13°   Wind: 6mph
Humidity: 74%   Direction: 180°S
Pressure: 30.3"   Gusts: NA
Location:  41.95°N, 87.86°W
Report Text: KORD 281151Z 18005KT 10SM BKN060 OVC080 M07/M11 A3030 RMK AO2 SNE17 SLP270 P0000 60000 T10671106 11067 21078 58021
Loading
Personal Weather Stations






























Interactive Weather Map New forecast layout! Learn more

10-Day Weather Forecast

Advertisements
Track Severe Weather on mobile